Phoenix, AZ (85017)

5:27 PM MST on March 28, 2015 (GMT -0700)
Phoenix S of Christown | | Change Station
CLOSE
Current Station
Personal Weather Station
Location: Phoenix, AZ
Elevation: 1152 ft
Nearby Weather Stations

Elev 1152 ft 33.51 °N, 112.10 °W | Updated 14 minutes ago

Clear
Clear
92.7 °F
Feels Like 88 °F
N
3.0
Wind Variable Wind from NNE
Gusts 5.0 mph

Today
High -- | Low -- °F
--% Chance of Precip.
Yesterday
High -- | Low -- °F
Precip. -- in
6:21 AM 6:45 PM
Waxing Gibbous, 66% visible
Pressure 29.88 in
Visibility 10.0 miles
Clouds Few 25000 ft
Heat Index 88 °F
Dew Point 16 °F
Humidity 6%
Rainfall 0.00 in
Snow Depth Not available.
UV 2 out of 12
Pollen 11.10 out of 12
Air Quality Not available.
Flu Activity Not available.
METAR KPHX 282351Z COR VRB05KT 10SM FEW250 34/M09 A2993 RMK AO2 SLP118 T03391094 10350 20283 56022

More Conditions Fewer Conditions

Pressure 29.88 in
Visibility 10.0 miles
Clouds Few 25000 ft
Heat Index 88 °F
Dew Point 16 °F
Humidity 6%
Rainfall 0.00 in
Snow Depth Not available.
UV 2 out of 12
Pollen 11.10 out of 12
Air Quality Not available.
Flu Activity Not available.
METAR KPHX 282351Z COR VRB05KT 10SM FEW250 34/M09 A2993 RMK AO2 SLP118 T03391094 10350 20283 56022

More Conditions Fewer Conditions

10-Day Weather Forecast

Almanac

Astronomy

Mar. 28, 2015 Rise Set
Actual Time
Civil Twilight
Nautical Twilight
Astronomical Twilight
Moon
Length of Visible Light
Length of Day
Tomorrow will be .
, % of the Moon is Illuminated

Today's Extremes

State Highs State Lows

Community

WunderPhotos

Upload Photos

1,809,136 photos uploaded!

WunderBlogs® & News

Nearby

Air Quality

  Air Quality AQ Index Pollutant
Not available.

Snow Depth

Station Depth Elevation

Earthquake Activity

City Distance Mag. Time & Date
Minimum magnitude displayed is 2.5.

Coastal Water Temperatures

Place Temperature

Stations

Nearby Weather Stations

Station Location Temp. Windchill Dew Point Humidity Wind Precip. Elev Updated Type